Mesa Grande (220) Station Data

Red Flag Warning: No
Fire Weather Zone: 258
SDGE Region: Ramona
Lat/Lon: 33.168/-116.759

Observations

Time Wind Speed/Gust Temp(F) RH Fuel Moist Fuel Temp(F) Dewpt(F) Tmax(F) Tmin(F) Accum Precip 10-min Precip SL Press(mb)
4/26 2:40am 180 2 G 4 54° 53% - - 37° 55.3° 50.6° - - -
4/26 2:30am 67 3 G 5 53° 52% - - 36° 55.3° 50.6° - - -
4/26 2:20am 65 1 G 4 54° 53% - - 37° 55.3° 50.6° - - -
4/26 2:10am 359 3 G 5 54° 56% - - 38° 55.3° 50.6° - - -
4/26 2:00am 339 3 G 7 54° 57% - - 39° 55.3° 50.6° - - -
4/26 1:50am 354 5 G 10 54° 53% - - 37° 55.3° 50.6° - - -
4/26 1:40am 44 3 G 6 54° 54% - - 38° 54.4° 50.6° - - -
4/26 1:30am 38 3 G 4 54° 54% - - 38° 54.4° 50.6° - - -
4/26 1:20am 39 4 G 6 54° 55% - - 38° 54.3° 50.6° - - -
4/26 1:10am 45 4 G 6 53° 58% - - 39° 54.3° 50.6° - - -
4/26 1:00am 50 5 G 6 54° 57% - - 39° 54.3° 50.6° - - -
4/26 12:50am 47 6 G 7 53° 60% - - 40° 53.6° 50.6° - - -
4/26 12:40am 57 5 G 6 52° 68% - - 41° 52.8° 50.6° - - -
4/26 12:30am 58 5 G 6 51° 70% - - 42° 52.8° 50.6° - - -
4/26 12:20am 54 6 G 7 52° 68% - - 42° 52.8° 51.2° - - -
4/26 12:10am 48 5 G 6 52° 68% - - 42° 52.6° 52° - - -
4/26 12:00am 38 3 G 5 52° 68% - - 42° 59.1° 46° - - -
4/25 11:50pm 49 5 G 6 52° 69% - - 42° 59.1° 46° - - -
4/25 11:40pm 48 5 G 6 52° 72% - - 43° 59.1° 46° - - -
4/25 11:30pm 48 5 G 7 52° 73% - - 43° 59.1° 46° - - -
4/25 11:20pm 53 6 G 6 51° 75% - - 43° 59.1° 46° - - -
4/25 11:10pm 61 5 G 6 51° 73% - - 43° 59.1° 46° - - -
4/25 11:00pm 50 3 G 4 52° 73% - - 43° 59.1° 46° - - -
4/25 10:50pm 28 2 G 4 52° 73% - - 43° 59.1° 46° - - -
4/25 10:40pm 47 3 G 4 52° 73% - - 44° 59.1° 46° - - -
4/25 10:30pm 54 3 G 4 51° 78% - - 44° 59.1° 46° - - -
4/25 10:20pm 58 5 G 6 49° 87% - - 46° 59.1° 46° - - -
4/25 10:10pm 53 6 G 7 48° 90% - - 45° 59.1° 46° - - -
4/25 10:00pm 50 4 G 6 49° 89% - - 46° 59.1° 46° - - -
4/25 9:50pm 153 1 G 2 49° 88% - - 46° 59.1° 46° - - -
4/25 9:40pm 153 0 G 2 50° 88% - - 46° 59.1° 46° - - -
4/25 9:30pm 78 2 G 4 50° 89% - - 46° 59.1° 46° - - -
4/25 9:20pm 60 2 G 4 49° 89% - - 46° 59.1° 46° - - -
4/25 9:10pm 40 2 G 4 49° 88% - - 45° 59.1° 46° - - -
4/25 9:00pm 47 2 G 4 49° 88% - - 46° 59.1° 46° - - -
4/25 8:50pm 62 3 G 3 49° 88% - - 45° 59.1° 46° - - -
4/25 8:40pm 72 2 G 4 50° 87% - - 46° 59.1° 46° - - -
4/25 8:30pm 59 1 G 2 50° 88% - - 46° 59.1° 46° - - -
4/25 8:20pm 69 2 G 3 49° 88% - - 46° 59.1° 46° - - -
4/25 8:10pm 284 0 G 1 50° 86% - - 46° 59.1° 46° - - -
4/25 8:00pm 198 2 G 4 50° 86% - - 46° 59.1° 46° - - -
4/25 7:50pm 168 3 G 4 50° 85% - - 46° 59.1° 46° - - -
4/25 7:40pm 175 3 G 4 51° 85% - - 46° 59.1° 46° - - -
4/25 7:30pm 205 4 G 5 51° 84% - - 47° 59.1° 46° - - -
4/25 7:20pm 209 4 G 6 52° 82% - - 47° 59.1° 46° - - -
4/25 7:10pm 216 4 G 8 52° 82% - - 47° 59.1° 46° - - -
4/25 7:00pm 233 5 G 7 53° 80% - - 47° 59.1° 46° - - -
4/25 6:50pm 227 4 G 8 53° 80% - - 47° 59.1° 46° - - -
4/25 6:40pm 239 6 G 9 53° 79% - - 46° 59.1° 46° - - -
4/25 6:30pm 246 6 G 10 53° 77% - - 46° 59.1° 46° - - -
4/25 6:20pm 220 7 G 10 54° 76% - - 46° 59.1° 46° - - -
4/25 6:10pm 221 6 G 9 54° 76% - - 47° 59.1° 46° - - -
4/25 6:00pm 238 6 G 11 54° 76% - - 47° 59.1° 46° - - -
4/25 5:50pm 232 7 G 11 55° 76% - - 47° 59.1° 46° - - -
4/25 5:40pm 231 6 G 11 55° 76% - - 47° 59.1° 46° - - -
4/25 5:30pm 225 6 G 11 55° 75% - - 47° 59.1° 46° - - -
4/25 5:20pm 238 7 G 10 55° 74% - - 47° 59.1° 46° - - -
4/25 5:10pm 246 8 G 13 55° 72% - - 47° 59.1° 46° - - -
4/25 5:00pm 234 8 G 15 56° 70% - - 46° 59.1° 46° - - -
4/25 4:50pm 236 8 G 14 56° 70% - - 46° 59.1° 46° - - -
4/25 4:40pm 247 7 G 12 56° 71% - - 46° 59.1° 46° - - -
4/25 4:30pm 242 7 G 12 56° 69% - - 46° 59.1° 46° - - -
4/25 4:20pm 241 7 G 12 56° 68% - - 46° 59.1° 46° - - -
4/25 4:10pm 229 8 G 13 56° 68% - - 46° 59.1° 46° - - -
4/25 4:00pm 236 8 G 14 56° 69% - - 46° 59.1° 46° - - -
4/25 3:50pm 244 7 G 12 56° 70% - - 46° 59.1° 46° - - -
4/25 3:40pm 241 10 G 15 55° 73% - - 47° 59.1° 46° - - -
4/25 3:30pm 245 9 G 15 55° 73% - - 47° 59.1° 46° - - -
4/25 3:20pm 239 9 G 14 56° 72% - - 47° 59.1° 46° - - -
4/25 3:10pm 219 9 G 15 55° 74% - - 47° 59.1° 46° - - -
4/25 3:00pm 210 10 G 16 55° 73% - - 47° 59.1° 46° - - -
4/25 2:50pm 219 10 G 15 56° 70% - - 46° 59.1° 46° - - -
4/25 2:40pm 225 9 G 18 56° 69% - - 46° 59.1° 46° - - -
4/25 2:30pm 222 8 G 14 56° 69% - - 46° 59.1° 46° - - -
4/25 2:20pm 234 9 G 15 57° 68% - - 46° 59.1° 46° - - -
4/25 2:10pm 223 8 G 13 57° 69% - - 47° 59.1° 46° - - -
4/25 2:00pm 224 8 G 15 57° 67% - - 47° 59.1° 46° - - -
4/25 1:50pm 232 8 G 15 58° 60% - - 44° 59.1° 46° - - -
4/25 1:40pm 244 9 G 18 58° 62% - - 45° 58.9° 46° - - -
4/25 1:30pm 242 8 G 15 57° 62% - - 44° 58.9° 46° - - -
4/25 1:20pm 243 10 G 17 58° 61% - - 44° 58.9° 46° - - -
4/25 1:10pm 245 9 G 17 57° 61% - - 44° 58.2° 46° - - -
4/25 1:00pm 236 10 G 16 57° 61% - - 44° 58.2° 46° - - -
4/25 12:50pm 242 9 G 16 57° 63% - - 45° 58.2° 46° - - -
4/25 12:40pm 250 9 G 15 56° 64% - - 44° 57.2° 46° - - -
4/25 12:30pm 258 10 G 16 56° 63% - - 44° 57.2° 46° - - -
4/25 12:20pm 249 10 G 17 56° 61% - - 43° 57.2° 46° - - -
4/25 12:10pm 235 9 G 13 56° 63% - - 44° 56.9° 46° - - -
4/25 12:00pm 233 8 G 15 55° 65% - - 43° 55.7° 46° - - -
4/25 11:50am 258 9 G 14 54° 68% - - 44° 54.6° 46° - - -
4/25 11:40am 228 7 G 11 54° 70% - - 44° 54.6° 46° - - -
4/25 11:30am 253 8 G 13 54° 68% - - 44° 54.5° 46° - - -
4/25 11:20am 244 6 G 12 54° 70% - - 44° 54° 46° - - -
4/25 11:10am 226 7 G 12 53° 73% - - 44° 53.5° 46° - - -
4/25 11:00am 229 8 G 13 53° 75% - - 45° 53.1° 46° - - -
4/25 10:50am 230 8 G 14 52° 79% - - 45° 52.4° 46° - - -
4/25 10:40am 218 7 G 12 52° 78% - - 45° 52.4° 46° - - -
4/25 10:30am 225 8 G 13 51° 80% - - 45° 52.1° 46° - - -
4/25 10:20am 229 8 G 12 50° 87% - - 47° 51.5° 46° - - -
4/25 10:10am 237 8 G 13 50° 95% - - 49° 51.2° 46° - - -
4/25 10:00am 215 10 G 17 49° 96% - - 48° 49.5° 46° - - -
4/25 9:50am 208 7 G 11 49° 96% - - 48° 49° 46° - - -
4/25 9:40am 207 7 G 12 48° 96% - - 47° 49° 46° - - -
4/25 9:30am 215 7 G 13 48° 96% - - 47° 48.7° 46° - - -
4/25 9:20am 198 10 G 14 48° 96% - - 47° 48.6° 46° - - -
4/25 9:10am 197 7 G 14 48° 96% - - 47° 48° 46° - - -
4/25 9:00am 195 9 G 15 47° 96% - - 46° 47.9° 46° - - -
4/25 8:50am 205 7 G 13 47° 96% - - 46° 47.7° 46° - - -
4/25 8:40am 211 7 G 14 47° 96% - - 46° 47.7° 46° - - -
4/25 8:30am 213 8 G 14 47° 96% - - 46° 47.7° 46° - - -
4/25 8:20am 205 9 G 13 47° 96% - - 46° 47.5° 46° - - -
4/25 8:10am 213 8 G 12 47° 96% - - 46° 47.4° 46° - - -
4/25 8:00am 213 7 G 12 47° 96% - - 46° 47.4° 46° - - -
4/25 7:50am 208 8 G 12 47° 96% - - 46° 47.4° 46° - - -
4/25 7:40am 219 6 G 11 47° 96% - - 46° 47.4° 46° - - -
4/25 7:30am 222 6 G 11 47° 96% - - 46° 47.4° 46° - - -
4/25 7:20am 233 8 G 14 47° 96% - - 45° 47.4° 46° - - -
4/25 7:10am 217 7 G 11 47° 96% - - 46° 47.4° 46° - - -
4/25 7:00am 218 7 G 11 47° 96% - - 46° 47.4° 46° - - -
4/25 6:50am 218 7 G 11 47° 96% - - 46° 47.4° 46° - - -
4/25 6:40am 228 7 G 13 47° 96% - - 46° 47.4° 46° - - -
4/25 6:30am 216 7 G 11 47° 96% - - 46° 47.4° 46° - - -
4/25 6:20am 212 8 G 14 47° 96% - - 45° 47.4° 46° - - -
4/25 6:10am 209 9 G 13 47° 96% - - 45° 47.4° 46° - - -
4/25 6:00am 211 7 G 12 47° 96% - - 45° 47.4° 46° - - -
4/25 5:50am 215 7 G 11 46° 96% - - 45° 47.4° 46° - - -
4/25 5:40am 204 7 G 10 46° 96% - - 45° 47.4° 46° - - -
4/25 5:30am 208 6 G 11 46° 96% - - 45° 47.4° 46° - - -
4/25 5:20am 209 5 G 10 46° 96% - - 45° 47.4° 46° - - -
4/25 5:10am 209 7 G 10 46° 96% - - 45° 47.4° 46° - - -
4/25 5:00am 206 5 G 8 46° 96% - - 45° 47.4° 46° - - -
4/25 4:50am 207 6 G 10 46° 96% - - 45° 47.4° 46° - - -
4/25 4:40am 216 5 G 8 46° 96% - - 45° 47.4° 46° - - -
4/25 4:30am 185 8 G 13 46° 96% - - 45° 47.4° 46° - - -
4/25 4:20am 199 8 G 13 46° 96% - - 45° 47.4° 46.1° - - -
4/25 4:10am 226 6 G 11 47° 96% - - 45° 47.4° 46.3° - - -
4/25 4:00am 237 6 G 10 47° 96% - - 46° 47.4° 46.3° - - -
4/25 3:50am 214 7 G 10 47° 96% - - 46° 47.4° 46.3° - - -
4/25 3:40am 211 8 G 13 47° 96% - - 46° 47.4° 46.3° - - -
4/25 3:30am 212 8 G 14 47° 96% - - 46° 47.4° 46.3° - - -
4/25 3:20am 214 7 G 15 47° 96% - - 46° 47.4° 46.3° - - -
4/25 3:10am 215 6 G 11 47° 96% - - 46° 47.4° 46.3° - - -
4/25 3:00am 215 7 G 12 47° 96% - - 46° 47.4° 46.3° - - -
4/25 2:50am 213 9 G 15 47° 96% - - 46° 47.4° 46.3° - - -
4/25 2:40am 212 8 G 14 47° 96% - - 46° 47.4° 46.3° - - -
4/25 2:30am 209 8 G 13 47° 96% - - 46° 47.4° 46.3° - - -
4/25 2:20am 215 7 G 12 47° 96% - - 46° 47.4° 46.3° - - -
4/25 2:10am 216 8 G 12 47° 96% - - 46° 47.4° 46.3° - - -
4/25 2:00am 210 8 G 12 47° 96% - - 45° 47.4° 46.3° - - -
4/25 1:50am 212 8 G 15 47° 96% - - 46° 47.4° 46.5° - - -
4/25 1:40am 209 8 G 14 47° 96% - - 46° 47.4° 46.5° - - -
4/25 1:30am 208 7 G 13 47° 96% - - 46° 47.4° 46.5° - - -
4/25 1:20am 215 6 G 11 47° 96% - - 46° 47.3° 46.5° - - -
4/25 1:10am 214 6 G 10 47° 96% - - 46° 47.3° 46.5° - - -
4/25 1:00am 212 6 G 11 47° 96% - - 46° 47.3° 46.5° - - -
4/25 12:50am 215 6 G 9 47° 96% - - 46° 47.3° 46.5° - - -
4/25 12:40am 211 6 G 11 47° 96% - - 46° 47.3° 46.5° - - -
4/25 12:30am 210 6 G 9 47° 96% - - 46° 47.3° 46.6° - - -
4/25 12:20am 221 6 G 9 47° 96% - - 46° 47.3° 46.6° - - -
4/25 12:10am 199 8 G 12 47° 96% - - 46° 47.1° 46.6° - - -
4/25 12:00am 203 9 G 14 47° 96% - - 46° 61.6° 43.6° - - -
4/24 11:50pm 197 10 G 15 47° 96% - - 46° 61.6° 43.6° - - -
4/24 11:40pm 206 8 G 13 47° 96% - - 46° 61.6° 43.6° - - -
4/24 11:30pm 215 8 G 14 47° 96% - - 46° 61.6° 43.6° - - -
4/24 11:20pm 227 8 G 14 48° 96% - - 46° 61.6° 43.6° - - -
4/24 11:10pm 222 8 G 13 48° 96% - - 46° 61.6° 43.6° - - -
4/24 11:00pm 222 8 G 14 48° 96% - - 47° 61.6° 43.6° - - -
4/24 10:50pm 218 7 G 12 48° 96% - - 47° 61.6° 43.6° - - -
4/24 10:40pm 223 6 G 12 48° 95% - - 47° 61.6° 43.6° - - -
4/24 10:30pm 205 7 G 11 48° 95% - - 47° 61.6° 43.6° - - -
4/24 10:20pm 208 7 G 10 48° 95% - - 47° 61.6° 43.6° - - -
4/24 10:10pm 205 7 G 11 48° 95% - - 47° 61.6° 43.6° - - -
4/24 10:00pm 202 7 G 10 48° 95% - - 47° 61.6° 43.6° - - -
4/24 9:50pm 208 6 G 9 48° 95% - - 47° 61.6° 43.6° - - -
4/24 9:40pm 208 6 G 9 48° 95% - - 47° 61.6° 43.6° - - -
4/24 9:30pm 208 5 G 9 48° 95% - - 47° 61.6° 43.6° - - -
4/24 9:20pm 215 6 G 9 48° 95% - - 47° 61.6° 43.6° - - -
4/24 9:10pm 212 6 G 10 49° 95% - - 47° 61.6° 43.6° - - -
4/24 9:00pm 214 7 G 10 49° 95% - - 47° 61.6° 43.6° - - -
4/24 8:50pm 211 7 G 11 49° 95% - - 47° 61.6° 43.6° - - -
4/24 8:40pm 210 6 G 11 49° 95% - - 48° 61.6° 43.6° - - -
4/24 8:30pm 212 5 G 9 49° 95% - - 48° 61.6° 43.6° - - -
4/24 8:20pm 207 6 G 10 49° 95% - - 48° 61.6° 43.6° - - -
4/24 8:10pm 198 8 G 10 49° 95% - - 48° 61.6° 43.6° - - -
4/24 8:00pm 198 7 G 10 50° 95% - - 48° 61.6° 43.6° - - -
4/24 7:50pm 210 6 G 9 50° 94% - - 48° 61.6° 43.6° - - -
4/24 7:40pm 211 6 G 9 50° 94% - - 49° 61.6° 43.6° - - -
4/24 7:30pm 213 7 G 11 50° 94% - - 49° 61.6° 43.6° - - -
4/24 7:20pm 213 6 G 12 51° 93% - - 49° 61.6° 43.6° - - -
4/24 7:10pm 225 7 G 12 51° 93% - - 49° 61.6° 43.6° - - -
4/24 7:00pm 215 7 G 11 51° 92% - - 49° 61.6° 43.6° - - -
4/24 6:50pm 224 7 G 11 52° 90% - - 49° 61.6° 43.6° - - -
4/24 6:40pm 225 8 G 14 52° 89% - - 49° 61.6° 43.6° - - -
4/24 6:30pm 222 8 G 12 52° 88% - - 49° 61.6° 43.6° - - -
4/24 6:20pm 217 7 G 12 53° 87% - - 49° 61.6° 43.6° - - -
4/24 6:10pm 216 8 G 12 53° 86% - - 49° 61.6° 43.6° - - -
4/24 6:00pm 215 8 G 13 53° 85% - - 49° 61.6° 43.6° - - -